Marata, Brazil
Current Conditions -  °F | °C
As of 8:17 AM on Wednesday 26 Nov 2014 (Local Time) from SBCO Reporting Station
Haze Haze  
Wind Chill: 72°   Ceiling: 600
Heat Index: 72°   Visibility: 1.5mi
Dew Point: 70°   Wind: 1mph
Humidity: 94%   Direction: 350°N
Pressure: 29.8"   Gusts: NA
Location:  29.55°S, 51.57°W
Report Text: SBCO 261017Z 35001KT 2500 BR BKN006 BKN030 22/21 Q1009
Loading
Personal Weather Stations






























Interactive Weather Map New forecast layout! Learn more

10-Day Weather Forecast

Advertisements
Track Severe Weather on mobile